RJNG(METAR)
04/24 09:00
METAR RJNG 240000Z 07004KT 8000 -RA FEW030 BKN050 BKN090 18/16 Q1017
RMK 1CU030 5SC050 7AS090 A3004=
戻る
トップページへ戻る
IMOC Co,.Ltd.